Finley, Missouri
Current Conditions -  °F | °C
As of 9:52 AM on Tuesday 21 Oct 2014 (Local Time) from KSGF Reporting Station
Clear Clear  
Wind Chill: 62°   Ceiling: Unl
Heat Index: 62°   Visibility: 10mi
Dew Point: 51°   Wind: 6mph
Humidity: 67%   Direction: 190°S
Pressure: 30.14"   Gusts: NA
Location:  36.9964°N, 93.1892°W
Report Text: KSGF 211452Z 19005KT 10SM CLR 17/11 A3014 RMK AO2 SLP202 T01670106 53011
Loading
Personal Weather Stations






























Interactive Weather Map
Tropical Storm Tracking
New forecast layout! Learn more

10-Day Weather Forecast

Advertisements
Track Severe Weather on mobile